Terminal Aerodrome Forecast
Issued by NWS

Home | Current Version | Previous Version | Text Only | Print | Product List | Glossary On
Versions: 1 2 3 4 5 6 7 8 9 10 11 12 13 14 15 16 17 18 19 20 21 22
000
FTUS43 KEAX 021756 CCA
TAFSTJ
TAF COR
KSTJ 021756Z 0218/0318 04008KT P6SM FEW023 SCT029 OVC060
     FM021900 35005KT P6SM SCT140
     FM030100 VRB05KT P6SM FEW200
     FM031400 27005KT P6SM SKC=

USA.gov is the U.S. government's official web portal to all federal, state and local government web resources and services.